sensor_id;sensor_type;location;lat;lon;timestamp;P1;durP1;ratioP1;P2;durP2;ratioP2
76228;SDS011;65021;53.174;18.160;2023-09-30T00:02:12;16.40;;;8.40;;
76228;SDS011;65021;53.174;18.160;2023-09-30T00:04:39;12.00;;;7.30;;
76228;SDS011;65021;53.174;18.160;2023-09-30T00:07:05;13.30;;;8.30;;
76228;SDS011;65021;53.174;18.160;2023-09-30T00:09:31;13.30;;;8.10;;
76228;SDS011;65021;53.174;18.160;2023-09-30T00:11:57;16.00;;;7.50;;
76228;SDS011;65021;53.174;18.160;2023-09-30T00:14:23;15.30;;;8.70;;
76228;SDS011;65021;53.174;18.160;2023-09-30T00:16:49;14.00;;;8.10;;
76228;SDS011;65021;53.174;18.160;2023-09-30T00:19:16;14.30;;;7.50;;
76228;SDS011;65021;53.174;18.160;2023-09-30T00:21:42;14.40;;;8.70;;
76228;SDS011;65021;53.174;18.160;2023-09-30T00:24:08;16.00;;;8.00;;
76228;SDS011;65021;53.174;18.160;2023-09-30T00:26:34;12.90;;;8.80;;
76228;SDS011;65021;53.174;18.160;2023-09-30T00:29:01;12.20;;;8.00;;
76228;SDS011;65021;53.174;18.160;2023-09-30T00:31:30;16.70;;;8.90;;
76228;SDS011;65021;53.174;18.160;2023-09-30T00:33:57;16.00;;;9.50;;
76228;SDS011;65021;53.174;18.160;2023-09-30T00:36:23;13.80;;;7.70;;
76228;SDS011;65021;53.174;18.160;2023-09-30T00:38:49;12.60;;;7.70;;
76228;SDS011;65021;53.174;18.160;2023-09-30T00:41:15;13.50;;;8.60;;
76228;SDS011;65021;53.174;18.160;2023-09-30T00:43:41;13.00;;;8.10;;
76228;SDS011;65021;53.174;18.160;2023-09-30T00:48:53;18.60;;;8.50;;
76228;SDS011;65021;53.174;18.160;2023-09-30T00:51:20;11.80;;;7.50;;
76228;SDS011;65021;53.174;18.160;2023-09-30T00:53:48;11.20;;;7.60;;
76228;SDS011;65021;53.174;18.160;2023-09-30T00:56:18;13.20;;;8.60;;
76228;SDS011;65021;53.174;18.160;2023-09-30T00:58:45;12.30;;;8.00;;
76228;SDS011;65021;53.174;18.160;2023-09-30T01:01:13;12.60;;;7.90;;
76228;SDS011;65021;53.174;18.160;2023-09-30T01:03:40;10.20;;;7.70;;
76228;SDS011;65021;53.174;18.160;2023-09-30T01:06:06;14.60;;;7.90;;
76228;SDS011;65021;53.174;18.160;2023-09-30T01:08:32;12.80;;;6.90;;
76228;SDS011;65021;53.174;18.160;2023-09-30T01:10:59;12.90;;;7.70;;
76228;SDS011;65021;53.174;18.160;2023-09-30T01:13:33;12.10;;;7.00;;
76228;SDS011;65021;53.174;18.160;2023-09-30T01:16:03;13.00;;;7.70;;
76228;SDS011;65021;53.174;18.160;2023-09-30T01:21:02;14.10;;;7.60;;
76228;SDS011;65021;53.174;18.160;2023-09-30T01:23:32;14.40;;;8.40;;
76228;SDS011;65021;53.174;18.160;2023-09-30T01:26:05;15.00;;;8.20;;
76228;SDS011;65021;53.174;18.160;2023-09-30T01:28:32;13.00;;;8.00;;
76228;SDS011;65021;53.174;18.160;2023-09-30T01:30:59;15.30;;;8.70;;
76228;SDS011;65021;53.174;18.160;2023-09-30T01:33:25;11.00;;;7.40;;
76228;SDS011;65021;53.174;18.160;2023-09-30T01:35:51;14.00;;;8.20;;
76228;SDS011;65021;53.174;18.160;2023-09-30T01:38:16;12.50;;;7.40;;
76228;SDS011;65021;53.174;18.160;2023-09-30T01:40:42;13.20;;;7.50;;
76228;SDS011;65021;53.174;18.160;2023-09-30T01:43:09;11.00;;;7.50;;
76228;SDS011;65021;53.174;18.160;2023-09-30T01:45:36;14.50;;;7.90;;
76228;SDS011;65021;53.174;18.160;2023-09-30T01:48:02;13.30;;;8.10;;
76228;SDS011;65021;53.174;18.160;2023-09-30T01:50:28;14.40;;;7.30;;
76228;SDS011;65021;53.174;18.160;2023-09-30T01:52:54;14.00;;;8.10;;
76228;SDS011;65021;53.174;18.160;2023-09-30T01:55:20;11.20;;;8.00;;
76228;SDS011;65021;53.174;18.160;2023-09-30T01:57:45;15.30;;;8.30;;
76228;SDS011;65021;53.174;18.160;2023-09-30T02:00:11;12.40;;;8.80;;
76228;SDS011;65021;53.174;18.160;2023-09-30T02:02:38;14.90;;;8.00;;
76228;SDS011;65021;53.174;18.160;2023-09-30T02:05:04;12.10;;;7.90;;
76228;SDS011;65021;53.174;18.160;2023-09-30T02:07:33;13.50;;;8.00;;
76228;SDS011;65021;53.174;18.160;2023-09-30T02:10:00;12.90;;;8.20;;
76228;SDS011;65021;53.174;18.160;2023-09-30T02:12:27;13.70;;;7.80;;
76228;SDS011;65021;53.174;18.160;2023-09-30T02:14:57;13.70;;;8.90;;
76228;SDS011;65021;53.174;18.160;2023-09-30T02:17:24;15.40;;;8.10;;
76228;SDS011;65021;53.174;18.160;2023-09-30T02:19:50;12.60;;;8.50;;
76228;SDS011;65021;53.174;18.160;2023-09-30T02:22:15;14.00;;;8.10;;
76228;SDS011;65021;53.174;18.160;2023-09-30T02:24:41;14.00;;;8.80;;
76228;SDS011;65021;53.174;18.160;2023-09-30T02:27:07;13.50;;;8.20;;
76228;SDS011;65021;53.174;18.160;2023-09-30T02:29:33;12.70;;;8.00;;
76228;SDS011;65021;53.174;18.160;2023-09-30T02:31:59;12.00;;;8.40;;
76228;SDS011;65021;53.174;18.160;2023-09-30T02:34:25;15.10;;;8.40;;
76228;SDS011;65021;53.174;18.160;2023-09-30T02:36:51;13.20;;;8.80;;
76228;SDS011;65021;53.174;18.160;2023-09-30T02:39:17;13.20;;;7.90;;
76228;SDS011;65021;53.174;18.160;2023-09-30T02:41:43;13.50;;;8.70;;
76228;SDS011;65021;53.174;18.160;2023-09-30T02:44:09;15.00;;;8.90;;
76228;SDS011;65021;53.174;18.160;2023-09-30T02:46:35;15.30;;;9.10;;
76228;SDS011;65021;53.174;18.160;2023-09-30T02:49:01;14.10;;;7.90;;
76228;SDS011;65021;53.174;18.160;2023-09-30T02:51:27;12.80;;;8.30;;
76228;SDS011;65021;53.174;18.160;2023-09-30T02:53:55;15.30;;;9.20;;
76228;SDS011;65021;53.174;18.160;2023-09-30T02:56:21;13.00;;;8.20;;
76228;SDS011;65021;53.174;18.160;2023-09-30T02:58:50;14.50;;;7.90;;
76228;SDS011;65021;53.174;18.160;2023-09-30T03:01:17;14.90;;;8.00;;
76228;SDS011;65021;53.174;18.160;2023-09-30T03:03:43;10.10;;;6.50;;
76228;SDS011;65021;53.174;18.160;2023-09-30T03:06:12;12.90;;;8.00;;
76228;SDS011;65021;53.174;18.160;2023-09-30T03:08:38;12.50;;;8.90;;
76228;SDS011;65021;53.174;18.160;2023-09-30T03:11:04;12.80;;;7.80;;
76228;SDS011;65021;53.174;18.160;2023-09-30T03:13:30;14.70;;;9.00;;
76228;SDS011;65021;53.174;18.160;2023-09-30T03:15:56;15.50;;;8.60;;
76228;SDS011;65021;53.174;18.160;2023-09-30T03:18:23;12.90;;;8.20;;
76228;SDS011;65021;53.174;18.160;2023-09-30T03:20:52;11.50;;;8.00;;
76228;SDS011;65021;53.174;18.160;2023-09-30T03:23:26;12.10;;;8.00;;
76228;SDS011;65021;53.174;18.160;2023-09-30T03:25:56;11.10;;;7.00;;
76228;SDS011;65021;53.174;18.160;2023-09-30T03:28:23;11.20;;;7.20;;
76228;SDS011;65021;53.174;18.160;2023-09-30T03:30:49;12.40;;;8.10;;
76228;SDS011;65021;53.174;18.160;2023-09-30T03:33:15;12.90;;;8.50;;
76228;SDS011;65021;53.174;18.160;2023-09-30T03:35:41;13.40;;;8.30;;
76228;SDS011;65021;53.174;18.160;2023-09-30T03:38:07;12.40;;;8.30;;
76228;SDS011;65021;53.174;18.160;2023-09-30T03:40:35;13.40;;;8.40;;
76228;SDS011;65021;53.174;18.160;2023-09-30T03:43:04;14.90;;;9.40;;
76228;SDS011;65021;53.174;18.160;2023-09-30T03:45:33;11.50;;;7.80;;
76228;SDS011;65021;53.174;18.160;2023-09-30T03:47:59;14.60;;;8.80;;
76228;SDS011;65021;53.174;18.160;2023-09-30T03:50:26;11.50;;;7.60;;
76228;SDS011;65021;53.174;18.160;2023-09-30T03:53:02;13.10;;;8.70;;
76228;SDS011;65021;53.174;18.160;2023-09-30T03:55:30;13.20;;;8.80;;
76228;SDS011;65021;53.174;18.160;2023-09-30T03:57:57;12.50;;;8.40;;
76228;SDS011;65021;53.174;18.160;2023-09-30T04:00:23;16.00;;;8.80;;
76228;SDS011;65021;53.174;18.160;2023-09-30T04:02:50;11.00;;;8.00;;
76228;SDS011;65021;53.174;18.160;2023-09-30T04:05:20;10.20;;;6.60;;
76228;SDS011;65021;53.174;18.160;2023-09-30T04:07:52;11.30;;;7.70;;
76228;SDS011;65021;53.174;18.160;2023-09-30T04:10:18;11.70;;;6.80;;
76228;SDS011;65021;53.174;18.160;2023-09-30T04:12:43;10.00;;;5.90;;
76228;SDS011;65021;53.174;18.160;2023-09-30T04:15:09;10.10;;;5.50;;
76228;SDS011;65021;53.174;18.160;2023-09-30T04:17:38;6.80;;;4.20;;
76228;SDS011;65021;53.174;18.160;2023-09-30T04:20:07;9.60;;;4.40;;
76228;SDS011;65021;53.174;18.160;2023-09-30T04:22:41;10.30;;;4.30;;
76228;SDS011;65021;53.174;18.160;2023-09-30T04:25:14;7.10;;;3.00;;
76228;SDS011;65021;53.174;18.160;2023-09-30T04:27:42;6.20;;;2.00;;
76228;SDS011;65021;53.174;18.160;2023-09-30T04:30:08;5.80;;;2.30;;
76228;SDS011;65021;53.174;18.160;2023-09-30T04:32:36;9.10;;;2.90;;
76228;SDS011;65021;53.174;18.160;2023-09-30T04:35:04;5.70;;;1.80;;
76228;SDS011;65021;53.174;18.160;2023-09-30T04:37:30;6.50;;;2.40;;
76228;SDS011;65021;53.174;18.160;2023-09-30T04:39:56;4.70;;;1.50;;
76228;SDS011;65021;53.174;18.160;2023-09-30T04:42:23;5.70;;;1.60;;
76228;SDS011;65021;53.174;18.160;2023-09-30T04:44:52;4.10;;;1.30;;
76228;SDS011;65021;53.174;18.160;2023-09-30T04:47:18;5.30;;;1.20;;
76228;SDS011;65021;53.174;18.160;2023-09-30T04:49:47;5.10;;;1.30;;
76228;SDS011;65021;53.174;18.160;2023-09-30T04:52:13;5.30;;;1.30;;
76228;SDS011;65021;53.174;18.160;2023-09-30T04:54:39;3.80;;;1.00;;
76228;SDS011;65021;53.174;18.160;2023-09-30T04:57:05;5.10;;;1.20;;
76228;SDS011;65021;53.174;18.160;2023-09-30T04:59:32;4.00;;;1.00;;
76228;SDS011;65021;53.174;18.160;2023-09-30T05:01:58;6.00;;;1.20;;
76228;SDS011;65021;53.174;18.160;2023-09-30T05:04:24;2.90;;;0.90;;
76228;SDS011;65021;53.174;18.160;2023-09-30T05:06:51;3.40;;;1.00;;
76228;SDS011;65021;53.174;18.160;2023-09-30T05:09:17;4.10;;;1.30;;
76228;SDS011;65021;53.174;18.160;2023-09-30T05:11:43;5.30;;;0.90;;
76228;SDS011;65021;53.174;18.160;2023-09-30T05:14:09;3.80;;;1.30;;
76228;SDS011;65021;53.174;18.160;2023-09-30T05:16:35;3.80;;;1.20;;
76228;SDS011;65021;53.174;18.160;2023-09-30T05:19:02;4.60;;;1.30;;
76228;SDS011;65021;53.174;18.160;2023-09-30T05:21:30;4.40;;;1.00;;
76228;SDS011;65021;53.174;18.160;2023-09-30T05:23:56;4.80;;;1.50;;
76228;SDS011;65021;53.174;18.160;2023-09-30T05:26:22;4.10;;;1.20;;
76228;SDS011;65021;53.174;18.160;2023-09-30T05:28:48;2.90;;;1.00;;
76228;SDS011;65021;53.174;18.160;2023-09-30T05:31:13;8.90;;;1.30;;
76228;SDS011;65021;53.174;18.160;2023-09-30T05:33:39;4.30;;;1.30;;
76228;SDS011;65021;53.174;18.160;2023-09-30T05:36:05;4.30;;;1.00;;
76228;SDS011;65021;53.174;18.160;2023-09-30T05:38:31;5.70;;;1.30;;
76228;SDS011;65021;53.174;18.160;2023-09-30T05:40:57;5.70;;;1.20;;
76228;SDS011;65021;53.174;18.160;2023-09-30T05:43:24;4.80;;;1.40;;
76228;SDS011;65021;53.174;18.160;2023-09-30T05:45:51;6.60;;;1.30;;
76228;SDS011;65021;53.174;18.160;2023-09-30T05:48:20;5.60;;;1.60;;
76228;SDS011;65021;53.174;18.160;2023-09-30T05:50:47;10.10;;;2.30;;
76228;SDS011;65021;53.174;18.160;2023-09-30T05:53:13;7.50;;;1.70;;
76228;SDS011;65021;53.174;18.160;2023-09-30T05:55:40;5.10;;;1.50;;
76228;SDS011;65021;53.174;18.160;2023-09-30T05:58:09;8.60;;;1.50;;
76228;SDS011;65021;53.174;18.160;2023-09-30T06:00:35;5.40;;;1.00;;
76228;SDS011;65021;53.174;18.160;2023-09-30T06:03:02;4.90;;;1.50;;
76228;SDS011;65021;53.174;18.160;2023-09-30T06:05:31;6.50;;;1.60;;
76228;SDS011;65021;53.174;18.160;2023-09-30T06:07:58;5.80;;;1.50;;
76228;SDS011;65021;53.174;18.160;2023-09-30T06:10:28;6.80;;;1.50;;
76228;SDS011;65021;53.174;18.160;2023-09-30T06:12:55;6.00;;;1.50;;
76228;SDS011;65021;53.174;18.160;2023-09-30T06:15:23;6.00;;;1.40;;
76228;SDS011;65021;53.174;18.160;2023-09-30T06:17:51;6.00;;;1.80;;
76228;SDS011;65021;53.174;18.160;2023-09-30T06:20:18;7.10;;;1.80;;
76228;SDS011;65021;53.174;18.160;2023-09-30T06:22:45;9.10;;;1.90;;
76228;SDS011;65021;53.174;18.160;2023-09-30T06:25:14;6.50;;;1.80;;
76228;SDS011;65021;53.174;18.160;2023-09-30T06:27:44;5.70;;;1.30;;
76228;SDS011;65021;53.174;18.160;2023-09-30T06:30:11;5.00;;;1.20;;
76228;SDS011;65021;53.174;18.160;2023-09-30T06:32:37;4.80;;;1.40;;
76228;SDS011;65021;53.174;18.160;2023-09-30T06:35:03;4.50;;;1.60;;
76228;SDS011;65021;53.174;18.160;2023-09-30T06:37:34;7.30;;;1.90;;
76228;SDS011;65021;53.174;18.160;2023-09-30T06:40:00;5.20;;;1.20;;
76228;SDS011;65021;53.174;18.160;2023-09-30T06:42:29;8.20;;;2.00;;
76228;SDS011;65021;53.174;18.160;2023-09-30T06:44:55;7.90;;;1.60;;
76228;SDS011;65021;53.174;18.160;2023-09-30T06:47:21;7.70;;;2.10;;
76228;SDS011;65021;53.174;18.160;2023-09-30T06:49:47;6.00;;;1.70;;
76228;SDS011;65021;53.174;18.160;2023-09-30T06:52:13;5.00;;;1.30;;
76228;SDS011;65021;53.174;18.160;2023-09-30T06:54:39;7.50;;;1.90;;
76228;SDS011;65021;53.174;18.160;2023-09-30T06:57:05;8.30;;;2.10;;
76228;SDS011;65021;53.174;18.160;2023-09-30T06:59:33;7.90;;;2.30;;
76228;SDS011;65021;53.174;18.160;2023-09-30T07:01:59;7.40;;;1.90;;
76228;SDS011;65021;53.174;18.160;2023-09-30T07:04:25;6.70;;;1.80;;
76228;SDS011;65021;53.174;18.160;2023-09-30T07:06:54;8.60;;;2.10;;
76228;SDS011;65021;53.174;18.160;2023-09-30T07:09:20;4.60;;;1.40;;
76228;SDS011;65021;53.174;18.160;2023-09-30T07:11:46;8.50;;;1.60;;
76228;SDS011;65021;53.174;18.160;2023-09-30T07:14:15;6.80;;;1.80;;
76228;SDS011;65021;53.174;18.160;2023-09-30T07:16:40;9.20;;;2.10;;
76228;SDS011;65021;53.174;18.160;2023-09-30T07:19:06;6.40;;;1.70;;
76228;SDS011;65021;53.174;18.160;2023-09-30T07:21:32;10.60;;;2.20;;
76228;SDS011;65021;53.174;18.160;2023-09-30T07:23:58;8.70;;;1.80;;
76228;SDS011;65021;53.174;18.160;2023-09-30T07:26:24;8.10;;;2.10;;
76228;SDS011;65021;53.174;18.160;2023-09-30T07:28:51;9.00;;;1.90;;
76228;SDS011;65021;53.174;18.160;2023-09-30T07:31:17;8.30;;;1.80;;
76228;SDS011;65021;53.174;18.160;2023-09-30T07:33:43;10.60;;;2.40;;
76228;SDS011;65021;53.174;18.160;2023-09-30T07:36:08;7.60;;;1.80;;
76228;SDS011;65021;53.174;18.160;2023-09-30T07:38:34;10.00;;;2.60;;
76228;SDS011;65021;53.174;18.160;2023-09-30T07:41:00;8.90;;;2.10;;
76228;SDS011;65021;53.174;18.160;2023-09-30T07:43:28;8.80;;;1.90;;
76228;SDS011;65021;53.174;18.160;2023-09-30T07:45:54;7.20;;;2.00;;
76228;SDS011;65021;53.174;18.160;2023-09-30T07:48:20;6.80;;;2.10;;
76228;SDS011;65021;53.174;18.160;2023-09-30T07:50:45;10.60;;;2.20;;
76228;SDS011;65021;53.174;18.160;2023-09-30T07:53:12;10.70;;;2.00;;
76228;SDS011;65021;53.174;18.160;2023-09-30T07:55:38;6.70;;;1.80;;
76228;SDS011;65021;53.174;18.160;2023-09-30T07:58:05;7.60;;;2.20;;
76228;SDS011;65021;53.174;18.160;2023-09-30T08:00:33;13.80;;;1.80;;
76228;SDS011;65021;53.174;18.160;2023-09-30T08:02:59;9.30;;;2.70;;
76228;SDS011;65021;53.174;18.160;2023-09-30T08:05:28;8.40;;;2.20;;
76228;SDS011;65021;53.174;18.160;2023-09-30T08:07:54;8.90;;;2.00;;
76228;SDS011;65021;53.174;18.160;2023-09-30T08:10:20;12.70;;;2.60;;
76228;SDS011;65021;53.174;18.160;2023-09-30T08:12:45;10.80;;;2.40;;
76228;SDS011;65021;53.174;18.160;2023-09-30T08:15:13;5.20;;;1.70;;
76228;SDS011;65021;53.174;18.160;2023-09-30T08:17:40;8.50;;;1.90;;
76228;SDS011;65021;53.174;18.160;2023-09-30T08:20:07;8.70;;;2.30;;
76228;SDS011;65021;53.174;18.160;2023-09-30T08:22:36;10.70;;;1.90;;
76228;SDS011;65021;53.174;18.160;2023-09-30T08:25:02;7.80;;;2.20;;
76228;SDS011;65021;53.174;18.160;2023-09-30T08:27:31;8.90;;;2.00;;
76228;SDS011;65021;53.174;18.160;2023-09-30T08:29:57;7.60;;;2.20;;
76228;SDS011;65021;53.174;18.160;2023-09-30T08:32:23;8.40;;;2.10;;
76228;SDS011;65021;53.174;18.160;2023-09-30T08:34:49;6.50;;;1.60;;
76228;SDS011;65021;53.174;18.160;2023-09-30T08:37:15;9.40;;;2.40;;
76228;SDS011;65021;53.174;18.160;2023-09-30T08:39:42;9.10;;;2.20;;
76228;SDS011;65021;53.174;18.160;2023-09-30T08:42:10;9.10;;;2.30;;
76228;SDS011;65021;53.174;18.160;2023-09-30T08:47:05;7.80;;;3.00;;
76228;SDS011;65021;53.174;18.160;2023-09-30T08:49:42;7.20;;;1.60;;
76228;SDS011;65021;53.174;18.160;2023-09-30T08:52:10;12.10;;;2.50;;
76228;SDS011;65021;53.174;18.160;2023-09-30T08:54:36;9.10;;;2.00;;
76228;SDS011;65021;53.174;18.160;2023-09-30T08:57:02;7.00;;;1.70;;
76228;SDS011;65021;53.174;18.160;2023-09-30T08:59:32;11.20;;;2.20;;
76228;SDS011;65021;53.174;18.160;2023-09-30T09:02:00;7.50;;;1.60;;
76228;SDS011;65021;53.174;18.160;2023-09-30T09:04:26;10.80;;;2.10;;
76228;SDS011;65021;53.174;18.160;2023-09-30T09:06:56;8.20;;;1.90;;
76228;SDS011;65021;53.174;18.160;2023-09-30T09:09:22;4.50;;;1.70;;
76228;SDS011;65021;53.174;18.160;2023-09-30T09:11:49;7.60;;;1.90;;
76228;SDS011;65021;53.174;18.160;2023-09-30T09:14:16;7.00;;;1.50;;
76228;SDS011;65021;53.174;18.160;2023-09-30T09:16:52;10.10;;;2.40;;
76228;SDS011;65021;53.174;18.160;2023-09-30T09:19:18;9.10;;;1.80;;
76228;SDS011;65021;53.174;18.160;2023-09-30T09:21:53;9.00;;;2.00;;
76228;SDS011;65021;53.174;18.160;2023-09-30T09:24:33;7.10;;;2.00;;
76228;SDS011;65021;53.174;18.160;2023-09-30T09:27:04;7.30;;;1.90;;
76228;SDS011;65021;53.174;18.160;2023-09-30T09:29:42;7.50;;;2.00;;
76228;SDS011;65021;53.174;18.160;2023-09-30T09:34:40;8.20;;;2.00;;
76228;SDS011;65021;53.174;18.160;2023-09-30T09:42:27;6.40;;;1.80;;
76228;SDS011;65021;53.174;18.160;2023-09-30T09:44:54;9.70;;;2.40;;
76228;SDS011;65021;53.174;18.160;2023-09-30T09:47:23;7.90;;;2.10;;
76228;SDS011;65021;53.174;18.160;2023-09-30T09:49:50;8.70;;;2.30;;
76228;SDS011;65021;53.174;18.160;2023-09-30T09:52:16;8.00;;;1.90;;
76228;SDS011;65021;53.174;18.160;2023-09-30T09:54:44;11.20;;;2.60;;
76228;SDS011;65021;53.174;18.160;2023-09-30T09:57:14;6.80;;;2.10;;
76228;SDS011;65021;53.174;18.160;2023-09-30T10:02:13;9.00;;;2.20;;
76228;SDS011;65021;53.174;18.160;2023-09-30T10:04:43;13.30;;;2.80;;
76228;SDS011;65021;53.174;18.160;2023-09-30T10:07:12;10.10;;;2.50;;
76228;SDS011;65021;53.174;18.160;2023-09-30T10:09:47;8.80;;;2.30;;
76228;SDS011;65021;53.174;18.160;2023-09-30T10:12:18;8.20;;;1.90;;
76228;SDS011;65021;53.174;18.160;2023-09-30T10:14:44;11.30;;;2.40;;
76228;SDS011;65021;53.174;18.160;2023-09-30T10:17:14;11.00;;;2.20;;
76228;SDS011;65021;53.174;18.160;2023-09-30T10:22:35;6.00;;;1.70;;
76228;SDS011;65021;53.174;18.160;2023-09-30T10:25:01;6.40;;;2.00;;
76228;SDS011;65021;53.174;18.160;2023-09-30T10:28:11;7.60;;;2.10;;
76228;SDS011;65021;53.174;18.160;2023-09-30T10:31:08;9.60;;;2.40;;
76228;SDS011;65021;53.174;18.160;2023-09-30T10:33:35;7.10;;;1.90;;
76228;SDS011;65021;53.174;18.160;2023-09-30T10:36:01;7.10;;;2.30;;
76228;SDS011;65021;53.174;18.160;2023-09-30T10:40:54;8.40;;;2.30;;
76228;SDS011;65021;53.174;18.160;2023-09-30T10:45:59;8.00;;;2.20;;
76228;SDS011;65021;53.174;18.160;2023-09-30T10:50:57;5.20;;;1.70;;
76228;SDS011;65021;53.174;18.160;2023-09-30T10:53:26;5.80;;;2.00;;
76228;SDS011;65021;53.174;18.160;2023-09-30T10:55:56;7.70;;;2.00;;
76228;SDS011;65021;53.174;18.160;2023-09-30T10:58:43;6.20;;;1.70;;
76228;SDS011;65021;53.174;18.160;2023-09-30T11:01:13;8.30;;;3.00;;
76228;SDS011;65021;53.174;18.160;2023-09-30T11:03:43;5.60;;;1.60;;
76228;SDS011;65021;53.174;18.160;2023-09-30T11:06:13;8.90;;;2.00;;
76228;SDS011;65021;53.174;18.160;2023-09-30T11:08:59;6.00;;;1.70;;
76228;SDS011;65021;53.174;18.160;2023-09-30T11:11:59;7.60;;;1.70;;
76228;SDS011;65021;53.174;18.160;2023-09-30T11:14:26;5.40;;;1.20;;
76228;SDS011;65021;53.174;18.160;2023-09-30T11:16:54;5.70;;;1.80;;
76228;SDS011;65021;53.174;18.160;2023-09-30T11:19:22;5.00;;;1.70;;
76228;SDS011;65021;53.174;18.160;2023-09-30T11:21:48;5.60;;;1.70;;
76228;SDS011;65021;53.174;18.160;2023-09-30T11:24:15;6.30;;;1.70;;
76228;SDS011;65021;53.174;18.160;2023-09-30T11:26:42;5.60;;;1.80;;
76228;SDS011;65021;53.174;18.160;2023-09-30T11:29:09;10.30;;;1.90;;
76228;SDS011;65021;53.174;18.160;2023-09-30T11:31:40;7.50;;;1.60;;
76228;SDS011;65021;53.174;18.160;2023-09-30T11:34:07;8.30;;;1.90;;
76228;SDS011;65021;53.174;18.160;2023-09-30T11:36:36;8.20;;;1.70;;
76228;SDS011;65021;53.174;18.160;2023-09-30T11:39:03;8.10;;;1.90;;
76228;SDS011;65021;53.174;18.160;2023-09-30T11:41:36;7.50;;;1.40;;
76228;SDS011;65021;53.174;18.160;2023-09-30T11:44:07;7.30;;;1.40;;
76228;SDS011;65021;53.174;18.160;2023-09-30T11:46:53;6.10;;;1.70;;
76228;SDS011;65021;53.174;18.160;2023-09-30T11:49:33;10.60;;;2.20;;
76228;SDS011;65021;53.174;18.160;2023-09-30T11:52:01;8.60;;;1.70;;
76228;SDS011;65021;53.174;18.160;2023-09-30T11:54:44;6.70;;;1.40;;
76228;SDS011;65021;53.174;18.160;2023-09-30T11:57:12;7.00;;;1.30;;
76228;SDS011;65021;53.174;18.160;2023-09-30T11:59:44;6.60;;;1.40;;
76228;SDS011;65021;53.174;18.160;2023-09-30T12:02:17;6.20;;;1.50;;
76228;SDS011;65021;53.174;18.160;2023-09-30T12:04:43;5.70;;;2.00;;
76228;SDS011;65021;53.174;18.160;2023-09-30T12:07:10;8.20;;;1.50;;
76228;SDS011;65021;53.174;18.160;2023-09-30T12:09:37;5.90;;;1.60;;
76228;SDS011;65021;53.174;18.160;2023-09-30T12:12:05;7.90;;;1.80;;
76228;SDS011;65021;53.174;18.160;2023-09-30T12:14:34;7.70;;;1.70;;
76228;SDS011;65021;53.174;18.160;2023-09-30T12:17:00;7.00;;;1.40;;
76228;SDS011;65021;53.174;18.160;2023-09-30T12:19:26;5.80;;;1.20;;
76228;SDS011;65021;53.174;18.160;2023-09-30T12:21:52;5.00;;;1.80;;
76228;SDS011;65021;53.174;18.160;2023-09-30T12:24:18;7.10;;;1.70;;
76228;SDS011;65021;53.174;18.160;2023-09-30T12:26:50;6.40;;;1.50;;
76228;SDS011;65021;53.174;18.160;2023-09-30T12:29:17;8.60;;;1.90;;
76228;SDS011;65021;53.174;18.160;2023-09-30T12:31:44;7.00;;;1.80;;
76228;SDS011;65021;53.174;18.160;2023-09-30T12:34:14;8.00;;;1.90;;
76228;SDS011;65021;53.174;18.160;2023-09-30T12:36:40;6.90;;;1.60;;
76228;SDS011;65021;53.174;18.160;2023-09-30T12:39:07;6.70;;;1.60;;
76228;SDS011;65021;53.174;18.160;2023-09-30T12:41:37;6.40;;;1.70;;
76228;SDS011;65021;53.174;18.160;2023-09-30T12:44:07;6.70;;;1.80;;
76228;SDS011;65021;53.174;18.160;2023-09-30T12:46:34;5.10;;;1.40;;
76228;SDS011;65021;53.174;18.160;2023-09-30T12:49:02;5.60;;;1.50;;
76228;SDS011;65021;53.174;18.160;2023-09-30T12:51:32;8.10;;;1.60;;
76228;SDS011;65021;53.174;18.160;2023-09-30T12:54:02;10.40;;;2.30;;
76228;SDS011;65021;53.174;18.160;2023-09-30T12:56:28;9.60;;;2.00;;
76228;SDS011;65021;53.174;18.160;2023-09-30T12:58:57;7.30;;;1.90;;
76228;SDS011;65021;53.174;18.160;2023-09-30T13:01:24;6.70;;;1.90;;
76228;SDS011;65021;53.174;18.160;2023-09-30T13:03:50;8.80;;;1.80;;
76228;SDS011;65021;53.174;18.160;2023-09-30T13:06:16;11.50;;;2.20;;
76228;SDS011;65021;53.174;18.160;2023-09-30T13:08:43;5.80;;;1.40;;
76228;SDS011;65021;53.174;18.160;2023-09-30T13:11:09;8.60;;;2.10;;
76228;SDS011;65021;53.174;18.160;2023-09-30T13:13:36;9.30;;;1.40;;
76228;SDS011;65021;53.174;18.160;2023-09-30T13:16:03;6.40;;;1.80;;
76228;SDS011;65021;53.174;18.160;2023-09-30T13:18:33;9.60;;;1.80;;
76228;SDS011;65021;53.174;18.160;2023-09-30T13:20:59;7.70;;;1.50;;
76228;SDS011;65021;53.174;18.160;2023-09-30T13:23:25;7.30;;;1.90;;
76228;SDS011;65021;53.174;18.160;2023-09-30T13:25:53;9.90;;;1.80;;
76228;SDS011;65021;53.174;18.160;2023-09-30T13:28:19;5.30;;;1.30;;
76228;SDS011;65021;53.174;18.160;2023-09-30T13:30:45;9.10;;;1.90;;
76228;SDS011;65021;53.174;18.160;2023-09-30T13:33:11;5.80;;;1.70;;
76228;SDS011;65021;53.174;18.160;2023-09-30T13:35:37;7.60;;;1.80;;
76228;SDS011;65021;53.174;18.160;2023-09-30T13:38:03;6.10;;;1.80;;
76228;SDS011;65021;53.174;18.160;2023-09-30T13:40:30;8.00;;;1.80;;
76228;SDS011;65021;53.174;18.160;2023-09-30T13:42:55;8.40;;;2.00;;
76228;SDS011;65021;53.174;18.160;2023-09-30T13:45:22;6.90;;;1.70;;
76228;SDS011;65021;53.174;18.160;2023-09-30T13:47:48;4.90;;;1.10;;
76228;SDS011;65021;53.174;18.160;2023-09-30T13:50:14;5.30;;;1.20;;
76228;SDS011;65021;53.174;18.160;2023-09-30T13:52:41;4.90;;;1.20;;
76228;SDS011;65021;53.174;18.160;2023-09-30T13:55:07;8.90;;;2.00;;
76228;SDS011;65021;53.174;18.160;2023-09-30T13:57:34;9.00;;;1.70;;
76228;SDS011;65021;53.174;18.160;2023-09-30T14:00:03;8.00;;;1.50;;
76228;SDS011;65021;53.174;18.160;2023-09-30T14:02:32;8.50;;;1.80;;
76228;SDS011;65021;53.174;18.160;2023-09-30T14:04:58;6.20;;;1.60;;
76228;SDS011;65021;53.174;18.160;2023-09-30T14:07:24;7.90;;;1.90;;
76228;SDS011;65021;53.174;18.160;2023-09-30T14:09:50;7.30;;;1.50;;
76228;SDS011;65021;53.174;18.160;2023-09-30T14:12:18;5.60;;;1.50;;
76228;SDS011;65021;53.174;18.160;2023-09-30T14:14:43;8.50;;;2.20;;
76228;SDS011;65021;53.174;18.160;2023-09-30T14:17:09;6.30;;;1.10;;
76228;SDS011;65021;53.174;18.160;2023-09-30T14:19:36;5.80;;;1.50;;
76228;SDS011;65021;53.174;18.160;2023-09-30T14:22:04;8.00;;;2.00;;
76228;SDS011;65021;53.174;18.160;2023-09-30T14:24:31;5.50;;;1.50;;
76228;SDS011;65021;53.174;18.160;2023-09-30T14:26:59;8.90;;;1.80;;
76228;SDS011;65021;53.174;18.160;2023-09-30T14:29:25;5.10;;;1.30;;
76228;SDS011;65021;53.174;18.160;2023-09-30T14:31:51;5.90;;;1.40;;
76228;SDS011;65021;53.174;18.160;2023-09-30T14:34:17;7.30;;;1.60;;
76228;SDS011;65021;53.174;18.160;2023-09-30T14:36:43;4.50;;;1.10;;
76228;SDS011;65021;53.174;18.160;2023-09-30T14:39:09;7.90;;;1.90;;
76228;SDS011;65021;53.174;18.160;2023-09-30T14:41:36;5.90;;;1.40;;
76228;SDS011;65021;53.174;18.160;2023-09-30T14:44:02;5.20;;;1.40;;
76228;SDS011;65021;53.174;18.160;2023-09-30T14:46:36;17.60;;;2.40;;
76228;SDS011;65021;53.174;18.160;2023-09-30T14:49:03;6.00;;;1.90;;
76228;SDS011;65021;53.174;18.160;2023-09-30T14:51:29;7.60;;;1.60;;
76228;SDS011;65021;53.174;18.160;2023-09-30T14:53:55;8.50;;;2.10;;
76228;SDS011;65021;53.174;18.160;2023-09-30T14:56:21;7.40;;;2.20;;
76228;SDS011;65021;53.174;18.160;2023-09-30T14:58:47;11.40;;;2.00;;
76228;SDS011;65021;53.174;18.160;2023-09-30T15:01:12;13.80;;;2.20;;
76228;SDS011;65021;53.174;18.160;2023-09-30T15:03:38;6.30;;;1.40;;